sensor_id;sensor_type;location;lat;lon;timestamp;temperature;humidity
5392;DHT22;2719;53.624;9.786;2024-03-17T00:01:00;7.40;1.00
5392;DHT22;2719;53.624;9.786;2024-03-17T00:03:27;7.40;1.00
5392;DHT22;2719;53.624;9.786;2024-03-17T00:05:56;7.30;1.00
5392;DHT22;2719;53.624;9.786;2024-03-17T00:08:23;7.20;1.00
5392;DHT22;2719;53.624;9.786;2024-03-17T00:10:50;7.20;99.90
5392;DHT22;2719;53.624;9.786;2024-03-17T00:13:17;7.10;99.90
5392;DHT22;2719;53.624;9.786;2024-03-17T00:15:43;7.00;1.00
5392;DHT22;2719;53.624;9.786;2024-03-17T00:18:09;6.90;1.00
5392;DHT22;2719;53.624;9.786;2024-03-17T00:20:36;6.90;1.00
5392;DHT22;2719;53.624;9.786;2024-03-17T00:23:05;6.90;99.90
5392;DHT22;2719;53.624;9.786;2024-03-17T00:25:32;6.90;1.00
5392;DHT22;2719;53.624;9.786;2024-03-17T00:27:59;6.90;39.70
5392;DHT22;2719;53.624;9.786;2024-03-17T00:30:25;6.90;1.00
5392;DHT22;2719;53.624;9.786;2024-03-17T00:32:51;6.90;1.00
5392;DHT22;2719;53.624;9.786;2024-03-17T00:35:17;6.90;1.00
5392;DHT22;2719;53.624;9.786;2024-03-17T00:37:47;6.90;1.00
5392;DHT22;2719;53.624;9.786;2024-03-17T00:40:14;6.90;99.90
5392;DHT22;2719;53.624;9.786;2024-03-17T00:42:41;7.00;1.00
5392;DHT22;2719;53.624;9.786;2024-03-17T00:45:08;7.00;1.00
5392;DHT22;2719;53.624;9.786;2024-03-17T00:47:35;7.00;1.00
5392;DHT22;2719;53.624;9.786;2024-03-17T00:50:01;6.90;99.90
5392;DHT22;2719;53.624;9.786;2024-03-17T00:52:29;6.90;1.00
5392;DHT22;2719;53.624;9.786;2024-03-17T00:54:55;6.90;99.90
5392;DHT22;2719;53.624;9.786;2024-03-17T00:57:23;6.90;1.00
5392;DHT22;2719;53.624;9.786;2024-03-17T00:59:49;6.90;44.00
5392;DHT22;2719;53.624;9.786;2024-03-17T01:02:16;6.80;99.90
5392;DHT22;2719;53.624;9.786;2024-03-17T01:04:42;6.80;99.90
5392;DHT22;2719;53.624;9.786;2024-03-17T01:07:09;6.80;98.60
5392;DHT22;2719;53.624;9.786;2024-03-17T01:09:35;6.90;1.00
5392;DHT22;2719;53.624;9.786;2024-03-17T01:12:02;6.90;1.00
5392;DHT22;2719;53.624;9.786;2024-03-17T01:14:29;7.00;1.00
5392;DHT22;2719;53.624;9.786;2024-03-17T01:16:58;7.20;1.00
5392;DHT22;2719;53.624;9.786;2024-03-17T01:19:24;7.20;1.00
5392;DHT22;2719;53.624;9.786;2024-03-17T01:21:51;7.20;1.00
5392;DHT22;2719;53.624;9.786;2024-03-17T01:24:18;7.20;1.00
5392;DHT22;2719;53.624;9.786;2024-03-17T01:26:44;7.30;1.00
5392;DHT22;2719;53.624;9.786;2024-03-17T01:29:11;7.20;1.00
5392;DHT22;2719;53.624;9.786;2024-03-17T01:31:38;7.20;90.60
5392;DHT22;2719;53.624;9.786;2024-03-17T01:34:04;7.20;1.00
5392;DHT22;2719;53.624;9.786;2024-03-17T01:36:30;7.40;1.00
5392;DHT22;2719;53.624;9.786;2024-03-17T01:38:57;7.40;1.00
5392;DHT22;2719;53.624;9.786;2024-03-17T01:41:22;7.40;1.00
5392;DHT22;2719;53.624;9.786;2024-03-17T01:43:49;7.40;99.90
5392;DHT22;2719;53.624;9.786;2024-03-17T01:46:16;7.30;99.90
5392;DHT22;2719;53.624;9.786;2024-03-17T01:48:45;7.20;1.00
5392;DHT22;2719;53.624;9.786;2024-03-17T01:51:11;7.20;1.00
5392;DHT22;2719;53.624;9.786;2024-03-17T01:53:40;7.00;99.90
5392;DHT22;2719;53.624;9.786;2024-03-17T01:56:07;6.90;1.00
5392;DHT22;2719;53.624;9.786;2024-03-17T01:58:36;6.90;1.00
5392;DHT22;2719;53.624;9.786;2024-03-17T02:01:02;7.00;28.10
5392;DHT22;2719;53.624;9.786;2024-03-17T02:03:29;7.00;1.00
5392;DHT22;2719;53.624;9.786;2024-03-17T02:05:57;7.00;1.00
5392;DHT22;2719;53.624;9.786;2024-03-17T02:08:23;7.00;1.00
5392;DHT22;2719;53.624;9.786;2024-03-17T02:10:52;7.00;99.90
5392;DHT22;2719;53.624;9.786;2024-03-17T02:13:18;7.00;1.00
5392;DHT22;2719;53.624;9.786;2024-03-17T02:15:46;7.10;1.00
5392;DHT22;2719;53.624;9.786;2024-03-17T02:18:11;7.10;99.90
5392;DHT22;2719;53.624;9.786;2024-03-17T02:20:38;7.10;99.90
5392;DHT22;2719;53.624;9.786;2024-03-17T02:23:26;7.10;99.90
5392;DHT22;2719;53.624;9.786;2024-03-17T02:25:53;7.00;1.00
5392;DHT22;2719;53.624;9.786;2024-03-17T02:28:18;6.90;99.90
5392;DHT22;2719;53.624;9.786;2024-03-17T02:30:45;6.90;1.00
5392;DHT22;2719;53.624;9.786;2024-03-17T02:33:11;6.70;99.90
5392;DHT22;2719;53.624;9.786;2024-03-17T02:35:38;6.70;99.90
5392;DHT22;2719;53.624;9.786;2024-03-17T02:38:04;6.60;99.90
5392;DHT22;2719;53.624;9.786;2024-03-17T02:40:32;6.70;1.00
5392;DHT22;2719;53.624;9.786;2024-03-17T02:42:57;6.70;99.90
5392;DHT22;2719;53.624;9.786;2024-03-17T02:45:24;6.70;1.00
5392;DHT22;2719;53.624;9.786;2024-03-17T02:47:51;6.80;1.00
5392;DHT22;2719;53.624;9.786;2024-03-17T02:50:17;6.80;1.00
5392;DHT22;2719;53.624;9.786;2024-03-17T02:52:44;6.70;1.00
5392;DHT22;2719;53.624;9.786;2024-03-17T02:55:10;6.70;99.90
5392;DHT22;2719;53.624;9.786;2024-03-17T02:57:38;6.60;99.90
5392;DHT22;2719;53.624;9.786;2024-03-17T03:00:07;6.50;1.00
5392;DHT22;2719;53.624;9.786;2024-03-17T03:02:38;6.50;99.90
5392;DHT22;2719;53.624;9.786;2024-03-17T03:05:05;6.40;1.00
5392;DHT22;2719;53.624;9.786;2024-03-17T03:07:32;6.40;99.90
5392;DHT22;2719;53.624;9.786;2024-03-17T03:09:58;6.40;99.90
5392;DHT22;2719;53.624;9.786;2024-03-17T03:12:25;6.30;99.90
5392;DHT22;2719;53.624;9.786;2024-03-17T03:14:53;6.30;99.90
5392;DHT22;2719;53.624;9.786;2024-03-17T03:17:20;6.40;99.90
5392;DHT22;2719;53.624;9.786;2024-03-17T03:19:46;6.40;1.00
5392;DHT22;2719;53.624;9.786;2024-03-17T03:22:13;6.40;99.90
5392;DHT22;2719;53.624;9.786;2024-03-17T03:24:40;6.40;1.00
5392;DHT22;2719;53.624;9.786;2024-03-17T03:27:07;6.40;99.90
5392;DHT22;2719;53.624;9.786;2024-03-17T03:29:34;6.30;1.00
5392;DHT22;2719;53.624;9.786;2024-03-17T03:32:02;6.30;1.00
5392;DHT22;2719;53.624;9.786;2024-03-17T03:34:28;6.30;1.00
5392;DHT22;2719;53.624;9.786;2024-03-17T03:36:55;6.30;1.00
5392;DHT22;2719;53.624;9.786;2024-03-17T03:39:22;6.30;99.90
5392;DHT22;2719;53.624;9.786;2024-03-17T03:41:50;6.20;99.90
5392;DHT22;2719;53.624;9.786;2024-03-17T03:44:17;6.20;1.00
5392;DHT22;2719;53.624;9.786;2024-03-17T03:46:44;6.20;1.00
5392;DHT22;2719;53.624;9.786;2024-03-17T03:49:13;6.20;1.00
5392;DHT22;2719;53.624;9.786;2024-03-17T03:51:40;6.20;1.00
5392;DHT22;2719;53.624;9.786;2024-03-17T03:54:06;6.10;1.00
5392;DHT22;2719;53.624;9.786;2024-03-17T03:56:33;6.10;99.90
5392;DHT22;2719;53.624;9.786;2024-03-17T03:59:00;6.10;1.00
5392;DHT22;2719;53.624;9.786;2024-03-17T04:01:26;6.10;1.00
5392;DHT22;2719;53.624;9.786;2024-03-17T04:03:53;6.10;1.00
5392;DHT22;2719;53.624;9.786;2024-03-17T04:06:21;6.10;99.90
5392;DHT22;2719;53.624;9.786;2024-03-17T04:08:48;6.20;99.90
5392;DHT22;2719;53.624;9.786;2024-03-17T04:11:15;6.20;99.90
5392;DHT22;2719;53.624;9.786;2024-03-17T04:13:42;6.20;1.00
5392;DHT22;2719;53.624;9.786;2024-03-17T04:16:08;6.20;99.90
5392;DHT22;2719;53.624;9.786;2024-03-17T04:18:36;6.10;1.00
5392;DHT22;2719;53.624;9.786;2024-03-17T04:21:04;6.10;1.00
5392;DHT22;2719;53.624;9.786;2024-03-17T04:23:33;6.10;1.00
5392;DHT22;2719;53.624;9.786;2024-03-17T04:26:00;6.00;1.00
5392;DHT22;2719;53.624;9.786;2024-03-17T04:28:28;6.10;1.00
5392;DHT22;2719;53.624;9.786;2024-03-17T04:31:03;6.20;1.00
5392;DHT22;2719;53.624;9.786;2024-03-17T04:33:31;6.20;1.00
5392;DHT22;2719;53.624;9.786;2024-03-17T04:35:57;6.20;1.00
5392;DHT22;2719;53.624;9.786;2024-03-17T04:38:24;6.20;1.00
5392;DHT22;2719;53.624;9.786;2024-03-17T04:40:53;6.20;1.00
5392;DHT22;2719;53.624;9.786;2024-03-17T04:43:29;6.30;1.00
5392;DHT22;2719;53.624;9.786;2024-03-17T04:46:00;6.30;1.00
5392;DHT22;2719;53.624;9.786;2024-03-17T04:48:29;6.40;1.00
5392;DHT22;2719;53.624;9.786;2024-03-17T04:50:56;6.30;1.00
5392;DHT22;2719;53.624;9.786;2024-03-17T04:53:22;6.40;1.00
5392;DHT22;2719;53.624;9.786;2024-03-17T04:55:59;6.40;1.00
5392;DHT22;2719;53.624;9.786;2024-03-17T04:58:26;6.40;1.00
5392;DHT22;2719;53.624;9.786;2024-03-17T05:00:52;6.30;1.00
5392;DHT22;2719;53.624;9.786;2024-03-17T05:03:19;6.30;1.00
5392;DHT22;2719;53.624;9.786;2024-03-17T05:05:46;6.30;1.00
5392;DHT22;2719;53.624;9.786;2024-03-17T05:08:12;6.30;1.00
5392;DHT22;2719;53.624;9.786;2024-03-17T05:10:39;6.30;1.00
5392;DHT22;2719;53.624;9.786;2024-03-17T05:13:07;6.30;1.00
5392;DHT22;2719;53.624;9.786;2024-03-17T05:15:36;6.30;1.00
5392;DHT22;2719;53.624;9.786;2024-03-17T05:18:03;6.30;1.00
5392;DHT22;2719;53.624;9.786;2024-03-17T05:20:30;6.20;1.00
5392;DHT22;2719;53.624;9.786;2024-03-17T05:22:57;6.20;1.00
5392;DHT22;2719;53.624;9.786;2024-03-17T05:25:23;6.20;99.90
5392;DHT22;2719;53.624;9.786;2024-03-17T05:27:50;6.10;1.00
5392;DHT22;2719;53.624;9.786;2024-03-17T05:30:18;6.10;1.00
5392;DHT22;2719;53.624;9.786;2024-03-17T05:32:45;6.00;1.00
5392;DHT22;2719;53.624;9.786;2024-03-17T05:35:11;6.00;1.00
5392;DHT22;2719;53.624;9.786;2024-03-17T05:37:38;6.00;1.00
5392;DHT22;2719;53.624;9.786;2024-03-17T05:40:07;6.00;1.00
5392;DHT22;2719;53.624;9.786;2024-03-17T05:42:37;6.00;1.00
5392;DHT22;2719;53.624;9.786;2024-03-17T05:45:04;6.00;1.00
5392;DHT22;2719;53.624;9.786;2024-03-17T05:47:37;6.00;1.00
5392;DHT22;2719;53.624;9.786;2024-03-17T05:50:04;5.90;1.00
5392;DHT22;2719;53.624;9.786;2024-03-17T05:52:31;5.90;1.00
5392;DHT22;2719;53.624;9.786;2024-03-17T05:54:58;5.90;1.00
5392;DHT22;2719;53.624;9.786;2024-03-17T05:57:24;5.80;1.00
5392;DHT22;2719;53.624;9.786;2024-03-17T05:59:51;5.80;1.00
5392;DHT22;2719;53.624;9.786;2024-03-17T06:02:18;5.80;1.00
5392;DHT22;2719;53.624;9.786;2024-03-17T06:04:46;5.80;1.00
5392;DHT22;2719;53.624;9.786;2024-03-17T06:07:13;5.80;1.00
5392;DHT22;2719;53.624;9.786;2024-03-17T06:09:39;5.80;1.00
5392;DHT22;2719;53.624;9.786;2024-03-17T06:12:06;5.80;1.00
5392;DHT22;2719;53.624;9.786;2024-03-17T06:14:33;5.80;1.00
5392;DHT22;2719;53.624;9.786;2024-03-17T06:17:00;5.80;1.00
5392;DHT22;2719;53.624;9.786;2024-03-17T06:19:27;5.80;1.00
5392;DHT22;2719;53.624;9.786;2024-03-17T06:21:55;5.90;1.00
5392;DHT22;2719;53.624;9.786;2024-03-17T06:24:23;6.00;1.00
5392;DHT22;2719;53.624;9.786;2024-03-17T06:26:50;6.00;1.00
5392;DHT22;2719;53.624;9.786;2024-03-17T06:29:17;6.00;1.00
5392;DHT22;2719;53.624;9.786;2024-03-17T06:31:45;6.10;1.00
5392;DHT22;2719;53.624;9.786;2024-03-17T06:34:12;6.10;1.00
5392;DHT22;2719;53.624;9.786;2024-03-17T06:36:41;6.10;1.00
5392;DHT22;2719;53.624;9.786;2024-03-17T06:39:09;6.20;1.00
5392;DHT22;2719;53.624;9.786;2024-03-17T06:41:35;6.30;1.00
5392;DHT22;2719;53.624;9.786;2024-03-17T06:44:03;6.30;1.00
5392;DHT22;2719;53.624;9.786;2024-03-17T06:46:32;6.30;1.00
5392;DHT22;2719;53.624;9.786;2024-03-17T06:48:58;6.40;1.00
5392;DHT22;2719;53.624;9.786;2024-03-17T06:51:25;6.50;1.00
5392;DHT22;2719;53.624;9.786;2024-03-17T06:53:52;6.60;1.00
5392;DHT22;2719;53.624;9.786;2024-03-17T06:56:20;6.60;1.00
5392;DHT22;2719;53.624;9.786;2024-03-17T06:58:46;6.60;1.00
5392;DHT22;2719;53.624;9.786;2024-03-17T07:01:13;6.60;1.00
5392;DHT22;2719;53.624;9.786;2024-03-17T07:03:40;6.60;1.00
5392;DHT22;2719;53.624;9.786;2024-03-17T07:06:06;6.70;1.00
5392;DHT22;2719;53.624;9.786;2024-03-17T07:08:33;6.80;1.00
5392;DHT22;2719;53.624;9.786;2024-03-17T07:11:01;6.80;1.00
5392;DHT22;2719;53.624;9.786;2024-03-17T07:13:31;6.80;1.00
5392;DHT22;2719;53.624;9.786;2024-03-17T07:15:58;6.90;1.00
5392;DHT22;2719;53.624;9.786;2024-03-17T07:18:25;7.00;1.00
5392;DHT22;2719;53.624;9.786;2024-03-17T07:20:52;7.20;1.00
5392;DHT22;2719;53.624;9.786;2024-03-17T07:23:18;7.30;1.00
5392;DHT22;2719;53.624;9.786;2024-03-17T07:25:51;7.40;1.00
5392;DHT22;2719;53.624;9.786;2024-03-17T07:28:19;7.50;1.00
5392;DHT22;2719;53.624;9.786;2024-03-17T07:30:48;7.60;1.00
5392;DHT22;2719;53.624;9.786;2024-03-17T07:33:15;7.70;1.00
5392;DHT22;2719;53.624;9.786;2024-03-17T07:35:49;7.80;1.00
5392;DHT22;2719;53.624;9.786;2024-03-17T07:38:17;7.90;1.00
5392;DHT22;2719;53.624;9.786;2024-03-17T07:40:44;8.10;1.00
5392;DHT22;2719;53.624;9.786;2024-03-17T07:43:11;8.10;99.90
5392;DHT22;2719;53.624;9.786;2024-03-17T07:45:38;8.10;1.00
5392;DHT22;2719;53.624;9.786;2024-03-17T07:48:06;8.20;1.00
5392;DHT22;2719;53.624;9.786;2024-03-17T07:50:33;8.20;1.00
5392;DHT22;2719;53.624;9.786;2024-03-17T07:53:00;8.40;99.90
5392;DHT22;2719;53.624;9.786;2024-03-17T07:55:28;8.50;1.00
5392;DHT22;2719;53.624;9.786;2024-03-17T07:57:56;8.40;1.00
5392;DHT22;2719;53.624;9.786;2024-03-17T08:00:22;8.50;1.00
5392;DHT22;2719;53.624;9.786;2024-03-17T08:02:49;8.60;1.00
5392;DHT22;2719;53.624;9.786;2024-03-17T08:05:17;8.70;1.00
5392;DHT22;2719;53.624;9.786;2024-03-17T08:07:43;8.80;1.00
5392;DHT22;2719;53.624;9.786;2024-03-17T08:10:10;8.90;99.90
5392;DHT22;2719;53.624;9.786;2024-03-17T08:12:37;8.90;99.90
5392;DHT22;2719;53.624;9.786;2024-03-17T08:15:04;9.00;99.90
5392;DHT22;2719;53.624;9.786;2024-03-17T08:17:31;9.10;99.90
5392;DHT22;2719;53.624;9.786;2024-03-17T08:19:57;9.20;99.90
5392;DHT22;2719;53.624;9.786;2024-03-17T08:22:25;9.20;99.90
5392;DHT22;2719;53.624;9.786;2024-03-17T08:24:52;9.30;2.30
5392;DHT22;2719;53.624;9.786;2024-03-17T08:27:18;9.30;4.40
5392;DHT22;2719;53.624;9.786;2024-03-17T08:29:45;9.30;1.00
5392;DHT22;2719;53.624;9.786;2024-03-17T08:32:12;9.30;1.00
5392;DHT22;2719;53.624;9.786;2024-03-17T08:34:40;9.30;1.00
5392;DHT22;2719;53.624;9.786;2024-03-17T08:37:06;9.30;1.00
5392;DHT22;2719;53.624;9.786;2024-03-17T08:39:35;9.30;1.00
5392;DHT22;2719;53.624;9.786;2024-03-17T08:42:02;9.30;1.00
5392;DHT22;2719;53.624;9.786;2024-03-17T08:44:29;9.30;1.00
5392;DHT22;2719;53.624;9.786;2024-03-17T08:46:55;9.40;1.00
5392;DHT22;2719;53.624;9.786;2024-03-17T08:49:23;9.40;1.00
5392;DHT22;2719;53.624;9.786;2024-03-17T08:51:49;9.40;1.00
5392;DHT22;2719;53.624;9.786;2024-03-17T08:54:16;9.40;1.00
5392;DHT22;2719;53.624;9.786;2024-03-17T08:56:44;9.50;1.00
5392;DHT22;2719;53.624;9.786;2024-03-17T08:59:11;9.40;1.00
5392;DHT22;2719;53.624;9.786;2024-03-17T09:01:37;9.50;1.00
5392;DHT22;2719;53.624;9.786;2024-03-17T09:04:04;9.50;1.00
5392;DHT22;2719;53.624;9.786;2024-03-17T09:06:31;9.50;1.00
5392;DHT22;2719;53.624;9.786;2024-03-17T09:08:58;9.40;1.00
5392;DHT22;2719;53.624;9.786;2024-03-17T09:11:24;9.40;1.00
5392;DHT22;2719;53.624;9.786;2024-03-17T09:13:54;9.40;1.00
5392;DHT22;2719;53.624;9.786;2024-03-17T09:16:21;9.40;1.00
5392;DHT22;2719;53.624;9.786;2024-03-17T09:18:48;9.40;1.00
5392;DHT22;2719;53.624;9.786;2024-03-17T09:21:15;9.40;1.00
5392;DHT22;2719;53.624;9.786;2024-03-17T09:23:43;9.40;1.00
5392;DHT22;2719;53.624;9.786;2024-03-17T09:26:10;9.40;1.00
5392;DHT22;2719;53.624;9.786;2024-03-17T09:28:39;9.30;1.00
5392;DHT22;2719;53.624;9.786;2024-03-17T09:31:07;9.20;1.00
5392;DHT22;2719;53.624;9.786;2024-03-17T09:33:35;9.40;1.00
5392;DHT22;2719;53.624;9.786;2024-03-17T09:36:03;9.20;1.00
5392;DHT22;2719;53.624;9.786;2024-03-17T09:38:31;9.30;1.00
5392;DHT22;2719;53.624;9.786;2024-03-17T09:40:59;9.40;1.00
5392;DHT22;2719;53.624;9.786;2024-03-17T09:43:27;9.60;1.00
5392;DHT22;2719;53.624;9.786;2024-03-17T09:45:54;9.70;1.00
5392;DHT22;2719;53.624;9.786;2024-03-17T09:48:25;9.60;1.00
5392;DHT22;2719;53.624;9.786;2024-03-17T09:50:54;9.60;1.00
5392;DHT22;2719;53.624;9.786;2024-03-17T09:53:24;9.60;1.00
5392;DHT22;2719;53.624;9.786;2024-03-17T09:55:51;9.80;1.00
5392;DHT22;2719;53.624;9.786;2024-03-17T09:58:18;9.90;1.00
5392;DHT22;2719;53.624;9.786;2024-03-17T10:00:45;10.00;1.00
5392;DHT22;2719;53.624;9.786;2024-03-17T10:03:12;10.10;1.00
5392;DHT22;2719;53.624;9.786;2024-03-17T10:05:40;10.30;1.00
5392;DHT22;2719;53.624;9.786;2024-03-17T10:08:20;10.40;1.00
5392;DHT22;2719;53.624;9.786;2024-03-17T10:10:52;10.50;1.00
5392;DHT22;2719;53.624;9.786;2024-03-17T10:13:19;10.60;1.00
5392;DHT22;2719;53.624;9.786;2024-03-17T10:15:48;10.60;1.00
5392;DHT22;2719;53.624;9.786;2024-03-17T10:18:20;10.90;1.00
5392;DHT22;2719;53.624;9.786;2024-03-17T10:20:49;10.90;1.00
5392;DHT22;2719;53.624;9.786;2024-03-17T10:23:20;11.10;1.00
5392;DHT22;2719;53.624;9.786;2024-03-17T10:25:47;11.30;1.00
5392;DHT22;2719;53.624;9.786;2024-03-17T10:28:17;11.40;1.00
5392;DHT22;2719;53.624;9.786;2024-03-17T10:30:57;11.40;1.00
5392;DHT22;2719;53.624;9.786;2024-03-17T10:33:25;11.50;1.00
5392;DHT22;2719;53.624;9.786;2024-03-17T10:36:00;11.50;1.00
5392;DHT22;2719;53.624;9.786;2024-03-17T10:38:27;11.50;1.00
5392;DHT22;2719;53.624;9.786;2024-03-17T10:40:53;11.40;1.00
5392;DHT22;2719;53.624;9.786;2024-03-17T10:43:20;11.30;1.00
5392;DHT22;2719;53.624;9.786;2024-03-17T10:45:52;11.40;1.00
5392;DHT22;2719;53.624;9.786;2024-03-17T10:48:20;11.30;1.00
5392;DHT22;2719;53.624;9.786;2024-03-17T10:50:49;11.50;1.00
5392;DHT22;2719;53.624;9.786;2024-03-17T10:53:20;11.50;1.00
5392;DHT22;2719;53.624;9.786;2024-03-17T10:56:03;11.60;1.00
5392;DHT22;2719;53.624;9.786;2024-03-17T10:58:34;11.60;1.00
5392;DHT22;2719;53.624;9.786;2024-03-17T11:01:02;11.70;1.00
5392;DHT22;2719;53.624;9.786;2024-03-17T11:03:31;11.80;1.00
5392;DHT22;2719;53.624;9.786;2024-03-17T11:05:58;11.70;1.00
5392;DHT22;2719;53.624;9.786;2024-03-17T11:08:27;11.60;1.00
5392;DHT22;2719;53.624;9.786;2024-03-17T11:10:54;11.70;1.00
5392;DHT22;2719;53.624;9.786;2024-03-17T11:13:25;11.70;1.00
5392;DHT22;2719;53.624;9.786;2024-03-17T11:15:52;11.70;1.00
5392;DHT22;2719;53.624;9.786;2024-03-17T11:18:35;11.50;1.00
5392;DHT22;2719;53.624;9.786;2024-03-17T11:21:04;11.70;1.00
5392;DHT22;2719;53.624;9.786;2024-03-17T11:23:42;11.90;1.00
5392;DHT22;2719;53.624;9.786;2024-03-17T11:26:09;11.90;1.00
5392;DHT22;2719;53.624;9.786;2024-03-17T11:28:48;11.90;1.00
5392;DHT22;2719;53.624;9.786;2024-03-17T11:31:35;11.90;1.00
5392;DHT22;2719;53.624;9.786;2024-03-17T11:34:06;11.90;1.00
5392;DHT22;2719;53.624;9.786;2024-03-17T11:36:37;12.00;1.00
5392;DHT22;2719;53.624;9.786;2024-03-17T11:39:06;12.30;1.00
5392;DHT22;2719;53.624;9.786;2024-03-17T11:41:39;12.40;1.00
5392;DHT22;2719;53.624;9.786;2024-03-17T11:44:24;12.60;1.00
5392;DHT22;2719;53.624;9.786;2024-03-17T11:46:53;12.80;1.00
5392;DHT22;2719;53.624;9.786;2024-03-17T11:49:20;12.90;1.00
5392;DHT22;2719;53.624;9.786;2024-03-17T11:51:47;13.20;1.00
5392;DHT22;2719;53.624;9.786;2024-03-17T11:54:16;13.20;1.00
5392;DHT22;2719;53.624;9.786;2024-03-17T11:56:45;13.10;1.00
5392;DHT22;2719;53.624;9.786;2024-03-17T11:59:11;13.20;1.00
5392;DHT22;2719;53.624;9.786;2024-03-17T12:01:37;13.50;1.00
5392;DHT22;2719;53.624;9.786;2024-03-17T12:04:04;13.50;1.00
5392;DHT22;2719;53.624;9.786;2024-03-17T12:06:31;13.60;1.00
5392;DHT22;2719;53.624;9.786;2024-03-17T12:09:08;13.60;1.00
5392;DHT22;2719;53.624;9.786;2024-03-17T12:11:37;13.40;1.00
5392;DHT22;2719;53.624;9.786;2024-03-17T12:14:14;13.50;1.00
5392;DHT22;2719;53.624;9.786;2024-03-17T12:16:50;13.70;1.00
5392;DHT22;2719;53.624;9.786;2024-03-17T12:19:17;13.60;1.00
5392;DHT22;2719;53.624;9.786;2024-03-17T12:21:45;13.70;1.00
5392;DHT22;2719;53.624;9.786;2024-03-17T12:24:16;13.50;1.00
5392;DHT22;2719;53.624;9.786;2024-03-17T12:26:45;13.70;1.00
5392;DHT22;2719;53.624;9.786;2024-03-17T12:29:23;14.00;1.00
5392;DHT22;2719;53.624;9.786;2024-03-17T12:31:50;14.20;1.00
5392;DHT22;2719;53.624;9.786;2024-03-17T12:34:18;14.50;1.00
5392;DHT22;2719;53.624;9.786;2024-03-17T12:36:44;14.40;1.00
5392;DHT22;2719;53.624;9.786;2024-03-17T12:39:15;14.30;1.00
5392;DHT22;2719;53.624;9.786;2024-03-17T12:41:44;14.50;1.00
5392;DHT22;2719;53.624;9.786;2024-03-17T12:44:21;14.50;1.00
5392;DHT22;2719;53.624;9.786;2024-03-17T12:46:47;14.50;1.00
5392;DHT22;2719;53.624;9.786;2024-03-17T12:49:14;14.70;1.00
5392;DHT22;2719;53.624;9.786;2024-03-17T12:51:39;14.70;1.00
5392;DHT22;2719;53.624;9.786;2024-03-17T12:54:13;14.80;1.00
5392;DHT22;2719;53.624;9.786;2024-03-17T12:56:38;14.80;1.00
5392;DHT22;2719;53.624;9.786;2024-03-17T12:59:24;14.90;1.00
5392;DHT22;2719;53.624;9.786;2024-03-17T13:02:10;15.00;1.00
5392;DHT22;2719;53.624;9.786;2024-03-17T13:04:37;14.80;1.00
5392;DHT22;2719;53.624;9.786;2024-03-17T13:07:10;14.50;1.00
5392;DHT22;2719;53.624;9.786;2024-03-17T13:09:36;14.10;1.00
5392;DHT22;2719;53.624;9.786;2024-03-17T13:12:13;14.10;1.00
5392;DHT22;2719;53.624;9.786;2024-03-17T13:14:42;14.20;1.00
5392;DHT22;2719;53.624;9.786;2024-03-17T13:17:14;14.30;1.00
5392;DHT22;2719;53.624;9.786;2024-03-17T13:19:45;14.00;1.00
5392;DHT22;2719;53.624;9.786;2024-03-17T13:22:13;14.20;1.00
5392;DHT22;2719;53.624;9.786;2024-03-17T13:24:39;14.20;1.00
5392;DHT22;2719;53.624;9.786;2024-03-17T13:27:06;14.00;1.00
5392;DHT22;2719;53.624;9.786;2024-03-17T13:29:33;14.00;1.00
5392;DHT22;2719;53.624;9.786;2024-03-17T13:32:03;14.10;1.00
5392;DHT22;2719;53.624;9.786;2024-03-17T13:34:29;14.00;1.00
5392;DHT22;2719;53.624;9.786;2024-03-17T13:36:56;14.00;1.00
5392;DHT22;2719;53.624;9.786;2024-03-17T13:39:29;13.80;1.00
5392;DHT22;2719;53.624;9.786;2024-03-17T13:41:57;13.90;1.00
5392;DHT22;2719;53.624;9.786;2024-03-17T13:44:28;14.10;1.00
5392;DHT22;2719;53.624;9.786;2024-03-17T13:46:54;14.10;1.00
5392;DHT22;2719;53.624;9.786;2024-03-17T13:49:22;14.10;1.00
5392;DHT22;2719;53.624;9.786;2024-03-17T13:51:49;14.20;1.00
5392;DHT22;2719;53.624;9.786;2024-03-17T13:54:16;14.50;1.00
5392;DHT22;2719;53.624;9.786;2024-03-17T13:56:42;14.60;1.00
5392;DHT22;2719;53.624;9.786;2024-03-17T13:59:10;14.70;1.00
5392;DHT22;2719;53.624;9.786;2024-03-17T14:01:37;14.60;1.00
5392;DHT22;2719;53.624;9.786;2024-03-17T14:04:03;14.20;1.00
5392;DHT22;2719;53.624;9.786;2024-03-17T14:06:31;14.30;1.00
5392;DHT22;2719;53.624;9.786;2024-03-17T14:08:58;14.20;1.00
5392;DHT22;2719;53.624;9.786;2024-03-17T14:11:25;14.20;1.00
5392;DHT22;2719;53.624;9.786;2024-03-17T14:13:52;14.20;1.00
5392;DHT22;2719;53.624;9.786;2024-03-17T14:16:18;14.20;1.00
5392;DHT22;2719;53.624;9.786;2024-03-17T14:18:45;14.20;1.00
5392;DHT22;2719;53.624;9.786;2024-03-17T14:21:12;14.00;1.00
5392;DHT22;2719;53.624;9.786;2024-03-17T14:23:39;13.90;1.00
5392;DHT22;2719;53.624;9.786;2024-03-17T14:26:07;13.60;1.00
5392;DHT22;2719;53.624;9.786;2024-03-17T14:28:34;13.70;1.00
5392;DHT22;2719;53.624;9.786;2024-03-17T14:31:02;13.80;1.00
5392;DHT22;2719;53.624;9.786;2024-03-17T14:33:28;13.80;1.00
5392;DHT22;2719;53.624;9.786;2024-03-17T14:35:56;13.80;1.00
5392;DHT22;2719;53.624;9.786;2024-03-17T14:38:23;13.70;1.00
5392;DHT22;2719;53.624;9.786;2024-03-17T14:40:52;13.50;1.00
5392;DHT22;2719;53.624;9.786;2024-03-17T14:43:19;13.20;1.00
5392;DHT22;2719;53.624;9.786;2024-03-17T14:45:46;13.20;1.00
5392;DHT22;2719;53.624;9.786;2024-03-17T14:48:12;13.20;1.00
5392;DHT22;2719;53.624;9.786;2024-03-17T14:50:39;13.40;1.00
5392;DHT22;2719;53.624;9.786;2024-03-17T14:53:06;13.60;1.00
5392;DHT22;2719;53.624;9.786;2024-03-17T14:55:33;13.50;1.00
5392;DHT22;2719;53.624;9.786;2024-03-17T14:58:01;13.60;1.00
5392;DHT22;2719;53.624;9.786;2024-03-17T15:00:28;13.60;1.00
5392;DHT22;2719;53.624;9.786;2024-03-17T15:02:57;13.70;1.00
5392;DHT22;2719;53.624;9.786;2024-03-17T15:05:23;13.90;1.00
5392;DHT22;2719;53.624;9.786;2024-03-17T15:07:51;13.90;1.00
5392;DHT22;2719;53.624;9.786;2024-03-17T15:10:18;14.00;1.00
5392;DHT22;2719;53.624;9.786;2024-03-17T15:12:46;14.20;1.00
5392;DHT22;2719;53.624;9.786;2024-03-17T15:15:15;14.10;1.00
5392;DHT22;2719;53.624;9.786;2024-03-17T15:17:42;14.30;1.00
5392;DHT22;2719;53.624;9.786;2024-03-17T15:20:10;14.40;1.00
5392;DHT22;2719;53.624;9.786;2024-03-17T15:22:43;14.30;1.00
5392;DHT22;2719;53.624;9.786;2024-03-17T15:25:10;14.30;1.00
5392;DHT22;2719;53.624;9.786;2024-03-17T15:27:37;14.40;1.00
5392;DHT22;2719;53.624;9.786;2024-03-17T15:30:05;14.20;1.00
5392;DHT22;2719;53.624;9.786;2024-03-17T15:32:33;14.10;1.00
5392;DHT22;2719;53.624;9.786;2024-03-17T15:35:00;14.00;1.00
5392;DHT22;2719;53.624;9.786;2024-03-17T15:37:26;13.90;1.00
5392;DHT22;2719;53.624;9.786;2024-03-17T15:39:53;13.70;1.00
5392;DHT22;2719;53.624;9.786;2024-03-17T15:42:21;13.50;1.00
5392;DHT22;2719;53.624;9.786;2024-03-17T15:44:47;13.50;1.00
5392;DHT22;2719;53.624;9.786;2024-03-17T15:47:14;13.50;1.00
5392;DHT22;2719;53.624;9.786;2024-03-17T15:49:42;13.50;1.00
5392;DHT22;2719;53.624;9.786;2024-03-17T15:52:08;13.70;1.00
5392;DHT22;2719;53.624;9.786;2024-03-17T15:54:35;13.70;1.00
5392;DHT22;2719;53.624;9.786;2024-03-17T15:57:02;13.70;1.00
5392;DHT22;2719;53.624;9.786;2024-03-17T15:59:28;13.70;1.00
5392;DHT22;2719;53.624;9.786;2024-03-17T16:01:55;13.40;1.00
5392;DHT22;2719;53.624;9.786;2024-03-17T16:04:22;13.40;1.00
5392;DHT22;2719;53.624;9.786;2024-03-17T16:06:53;13.40;1.00
5392;DHT22;2719;53.624;9.786;2024-03-17T16:09:20;13.00;1.00
5392;DHT22;2719;53.624;9.786;2024-03-17T16:11:47;12.70;1.00
5392;DHT22;2719;53.624;9.786;2024-03-17T16:14:14;12.80;1.00
5392;DHT22;2719;53.624;9.786;2024-03-17T16:16:42;12.90;1.00
5392;DHT22;2719;53.624;9.786;2024-03-17T16:19:08;12.70;1.00
5392;DHT22;2719;53.624;9.786;2024-03-17T16:21:35;12.70;1.00
5392;DHT22;2719;53.624;9.786;2024-03-17T16:24:08;12.70;1.00
5392;DHT22;2719;53.624;9.786;2024-03-17T16:26:37;12.70;1.00
5392;DHT22;2719;53.624;9.786;2024-03-17T16:29:06;12.80;1.00
5392;DHT22;2719;53.624;9.786;2024-03-17T16:31:33;12.80;1.00